Aviation Digital Data Service (ADDS)

Output produced by TAFs form (0641 UTC 26 August 2016)
found at http://aviationweather.gov/adds/tafs/
 
KMAF 260520Z 2606/2706 15010KT P6SM SCT070 BKN110